North Olmsted, OH (44070)

3:16 AM EDT on August 30, 2015 (GMT -0400)
Kilroy Estates | | Change Station
CLOSE
Current Station
Personal Weather Station
Location: North Olmsted, OH
Elevation: 755 ft
Nearby Weather Stations

Elev 755 ft 41.44 °N, 81.88 °W | Updated 3 minutes ago

Rain
Rain
66.6 °F
Feels Like 66.6 °F
N
0.0
Wind Variable Wind from West

Today
High -- | Low -- °F
--% Chance of Precip.
Yesterday
High -- | Low -- °F
Precip. -- in
6:51 AM 8:04 PM
Full, 100% visible
Pressure 30.06 in
Visibility 10.0 miles
Clouds Few 3400 ft
Scattered Clouds 5000 ft
Overcast 7000 ft
Dew Point 66 °F
Humidity 99%
Rainfall 0.14 in
Snow Depth Not available.
UV 0 out of 12
Pollen 9.40 out of 12
Air Quality Not available.
Flu Activity Not available.
METAR KCLE 300651Z 00000KT 10SM -RA FEW034 SCT050 OVC070 19/18 A3008 RMK AO2 TSE30 SLP180 P0003 T01940183
Pressure 30.06 in
Visibility 10.0 miles
Clouds Few 3400 ft
Scattered Clouds 5000 ft
Overcast 7000 ft
Dew Point 66 °F
Humidity 99%
Rainfall 0.14 in
Snow Depth Not available.
UV 0 out of 12
Pollen 9.40 out of 12
Air Quality Not available.
Flu Activity Not available.
METAR KCLE 300651Z 00000KT 10SM -RA FEW034 SCT050 OVC070 19/18 A3008 RMK AO2 TSE30 SLP180 P0003 T01940183

10-Day Weather Forecast

×

Almanac

Astronomy

Aug. 30, 2015 Rise Set
Actual Time
Civil Twilight
Nautical Twilight
Astronomical Twilight
Moon
Length of Visible Light
Length of Day
Tomorrow will be .
, % of the Moon is Illuminated

Today's Extremes

State Highs State Lows

Community

WunderPhotos

Upload Photos

1,850,904 photos uploaded!

WunderBlogs® & News

Nearby

Air Quality

  Air Quality AQ Index Pollutant
Not available.

Snow Depth

Station Depth Elevation

Earthquake Activity

City Distance Mag. Time & Date
Minimum magnitude displayed is 2.5.

Coastal Water Temperatures

Place Temperature

Stations

Nearby Weather Stations

Station Location Temp. Windchill Dew Point Humidity Wind Precip. Elev Updated Type